createdAt,value
2022-08-28T00:00:43.535Z,69.66
2022-08-28T00:01:43.526Z,69.66
2022-08-28T00:02:43.572Z,69.66
2022-08-28T00:03:43.524Z,69.66
2022-08-28T00:04:43.566Z,69.66
2022-08-28T00:05:43.478Z,69.66
2022-08-28T00:06:43.466Z,69.66
2022-08-28T00:07:47.680Z,69.56
2022-08-28T00:08:43.467Z,69.66
2022-08-28T00:09:43.435Z,69.56
2022-08-28T00:10:43.442Z,69.56
2022-08-28T00:11:43.415Z,69.56
2022-08-28T00:12:43.401Z,69.56
2022-08-28T00:13:43.411Z,69.66
2022-08-28T00:14:43.378Z,69.56
2022-08-28T00:15:43.437Z,69.56
2022-08-28T00:16:43.357Z,69.56
2022-08-28T00:17:43.348Z,69.56
2022-08-28T00:18:43.358Z,69.56
2022-08-28T00:19:43.325Z,69.66
2022-08-28T00:20:43.314Z,69.56
2022-08-28T00:21:43.308Z,69.56
2022-08-28T00:22:43.292Z,69.56
2022-08-28T00:23:43.449Z,69.46
2022-08-28T00:24:43.290Z,69.56
2022-08-28T00:25:43.259Z,69.56
2022-08-28T00:26:43.248Z,69.46
2022-08-28T00:27:43.237Z,69.56
2022-08-28T00:28:43.227Z,69.56
2022-08-28T00:29:43.238Z,69.56
2022-08-28T00:30:43.205Z,69.66
2022-08-28T00:31:43.249Z,69.56
2022-08-28T00:32:43.207Z,69.46
2022-08-28T00:33:43.172Z,69.46
2022-08-28T00:34:43.163Z,69.46
2022-08-28T00:35:43.149Z,69.56
2022-08-28T00:36:43.141Z,69.46
2022-08-28T00:37:43.150Z,69.46
2022-08-28T00:38:43.119Z,69.46
2022-08-28T00:39:43.108Z,69.46
2022-08-28T00:40:43.209Z,69.46
2022-08-28T00:41:43.105Z,69.46
2022-08-28T00:42:43.074Z,69.46
2022-08-28T00:43:43.064Z,69.36
2022-08-28T00:44:43.054Z,69.36
2022-08-28T00:45:43.065Z,69.46
2022-08-28T00:46:43.087Z,69.46
2022-08-28T00:47:43.018Z,69.46
2022-08-28T00:48:43.008Z,69.46
2022-08-28T00:49:42.997Z,69.46
2022-08-28T00:50:43.010Z,69.46
2022-08-28T00:51:42.975Z,69.46
2022-08-28T00:52:42.987Z,69.36
2022-08-28T00:53:42.953Z,69.36
2022-08-28T00:54:45.673Z,69.46
2022-08-28T00:55:43.935Z,69.46
2022-08-28T00:56:42.925Z,69.46
2022-08-28T00:57:42.936Z,69.46
2022-08-28T00:58:42.901Z,69.46
2022-08-28T00:59:42.918Z,69.56
2022-08-28T01:00:42.884Z,69.46
2022-08-28T01:01:42.908Z,69.56
2022-08-28T01:02:42.936Z,69.46
2022-08-28T01:03:42.851Z,69.46
2022-08-28T01:04:42.838Z,69.46
2022-08-28T01:05:42.827Z,69.46
2022-08-28T01:06:42.815Z,69.56
2022-08-28T01:07:42.834Z,69.46
2022-08-28T01:08:42.818Z,69.46
2022-08-28T01:09:42.785Z,69.46
2022-08-28T01:10:42.772Z,69.46
2022-08-28T01:11:42.762Z,69.46
2022-08-28T01:12:42.749Z,69.46
2022-08-28T01:13:42.768Z,69.46
2022-08-28T01:14:42.728Z,69.46
2022-08-28T01:15:42.787Z,69.46
2022-08-28T01:16:42.706Z,69.46
2022-08-28T01:17:43.195Z,69.46
2022-08-28T01:18:42.714Z,69.46
2022-08-28T01:19:42.700Z,69.56
2022-08-28T01:20:42.662Z,69.46
2022-08-28T01:21:42.653Z,69.56
2022-08-28T01:22:42.640Z,69.56
2022-08-28T01:23:42.630Z,69.56
2022-08-28T01:24:42.665Z,69.46
2022-08-28T01:25:42.608Z,69.46
2022-08-28T01:26:42.596Z,69.46
2022-08-28T01:27:42.590Z,69.56
2022-08-28T01:28:42.574Z,69.56
2022-08-28T01:29:42.563Z,69.56
2022-08-28T01:30:43.627Z,69.56
2022-08-28T01:31:42.543Z,69.46
2022-08-28T01:32:42.534Z,69.46
2022-08-28T01:33:42.800Z,69.36
2022-08-28T01:34:42.510Z,69.46
2022-08-28T01:35:42.541Z,69.56
2022-08-28T01:36:42.491Z,69.56
2022-08-28T01:37:42.480Z,69.56
2022-08-28T01:38:42.466Z,69.46
2022-08-28T01:39:42.460Z,69.56
2022-08-28T01:40:42.472Z,69.56
2022-08-28T01:41:42.435Z,69.56
2022-08-28T01:42:42.423Z,69.46
2022-08-28T01:43:42.413Z,69.46
2022-08-28T01:44:42.401Z,69.56
2022-08-28T01:45:42.425Z,69.56
2022-08-28T01:46:42.416Z,69.56
2022-08-28T01:47:42.371Z,69.66
2022-08-28T01:48:42.357Z,69.56
2022-08-28T01:49:42.348Z,69.56
2022-08-28T01:50:42.365Z,69.66
2022-08-28T01:51:42.358Z,69.66
2022-08-28T01:52:42.315Z,69.46
2022-08-28T01:53:45.194Z,69.56
2022-08-28T01:54:42.296Z,69.56
2022-08-28T01:55:42.283Z,69.56
2022-08-28T01:56:42.299Z,69.56
2022-08-28T01:57:42.289Z,69.56
2022-08-28T01:58:42.252Z,69.56
2022-08-28T01:59:42.239Z,69.66
2022-08-28T02:00:42.228Z,69.66
2022-08-28T02:01:42.255Z,69.56
2022-08-28T02:02:42.236Z,69.56
2022-08-28T02:03:42.221Z,69.56
2022-08-28T02:04:44.986Z,69.56
2022-08-28T02:05:43.172Z,69.56
2022-08-28T02:06:42.168Z,69.56
2022-08-28T02:07:42.154Z,69.66
2022-08-28T02:08:42.170Z,69.66
2022-08-28T02:09:42.130Z,69.66
2022-08-28T02:10:42.120Z,69.56
2022-08-28T02:11:42.106Z,69.56
2022-08-28T02:12:42.101Z,69.56
2022-08-28T02:13:42.115Z,69.56
2022-08-28T02:14:42.076Z,69.56
2022-08-28T02:15:42.100Z,69.46
2022-08-28T02:16:42.056Z,69.56
2022-08-28T02:17:42.043Z,69.56
2022-08-28T02:18:42.062Z,69.56
2022-08-28T02:19:42.022Z,69.46
2022-08-28T02:20:42.035Z,69.46
2022-08-28T02:21:42.016Z,69.46
2022-08-28T02:22:41.993Z,69.46
2022-08-28T02:23:41.981Z,69.56
2022-08-28T02:24:41.969Z,69.46
2022-08-28T02:25:41.984Z,69.46
2022-08-28T02:26:41.972Z,69.46
2022-08-28T02:27:41.935Z,69.46
2022-08-28T02:28:41.927Z,69.36
2022-08-28T02:29:41.914Z,69.46
2022-08-28T02:30:41.932Z,69.46
2022-08-28T02:31:41.921Z,69.36
2022-08-28T02:32:41.884Z,69.46
2022-08-28T02:33:41.871Z,69.46
2022-08-28T02:34:41.863Z,69.36
2022-08-28T02:35:41.848Z,69.46
2022-08-28T02:36:41.872Z,69.46
2022-08-28T02:37:41.828Z,69.36
2022-08-28T02:38:41.844Z,69.46
2022-08-28T02:39:41.807Z,69.46
2022-08-28T02:40:41.798Z,69.46
2022-08-28T02:41:41.785Z,69.36
2022-08-28T02:42:41.777Z,69.46
2022-08-28T02:43:41.792Z,69.46
2022-08-28T02:44:41.752Z,69.36
2022-08-28T02:45:41.742Z,69.46
2022-08-28T02:46:41.734Z,69.46
2022-08-28T02:47:41.723Z,69.46
2022-08-28T02:48:41.742Z,69.36
2022-08-28T02:49:41.734Z,69.36
2022-08-28T02:50:41.689Z,69.46
2022-08-28T02:51:41.678Z,69.46
2022-08-28T02:52:41.669Z,69.36
2022-08-28T02:53:41.656Z,69.36
2022-08-28T02:54:41.676Z,69.36
2022-08-28T02:55:41.635Z,69.46
2022-08-28T02:56:41.628Z,69.46
2022-08-28T02:57:41.614Z,69.46
2022-08-28T02:58:41.605Z,69.36
2022-08-28T02:59:41.640Z,69.46
2022-08-28T03:00:41.585Z,69.36
2022-08-28T03:01:41.616Z,69.46
2022-08-28T03:02:41.637Z,69.46
2022-08-28T03:03:41.758Z,69.36
2022-08-28T03:04:41.540Z,69.46
2022-08-28T03:05:41.557Z,69.36
2022-08-28T03:06:41.521Z,69.36
2022-08-28T03:07:41.507Z,69.36
2022-08-28T03:08:41.501Z,69.36
2022-08-28T03:09:41.485Z,69.36
2022-08-28T03:10:41.505Z,69.36
2022-08-28T03:11:41.474Z,69.36
2022-08-28T03:12:41.459Z,69.36
2022-08-28T03:13:41.446Z,69.36
2022-08-28T03:14:41.436Z,69.36
2022-08-28T03:15:41.451Z,69.36
2022-08-28T03:16:41.525Z,69.36
2022-08-28T03:17:41.403Z,69.26
2022-08-28T03:18:41.392Z,69.26
2022-08-28T03:19:41.380Z,69.26
2022-08-28T03:20:41.372Z,69.36
2022-08-28T03:21:41.384Z,69.36
2022-08-28T03:22:41.348Z,69.26
2022-08-28T03:23:41.339Z,69.36
2022-08-28T03:24:41.325Z,69.26
2022-08-28T03:25:41.315Z,69.36
2022-08-28T03:26:41.352Z,69.36
2022-08-28T03:27:41.292Z,69.36
2022-08-28T03:28:41.287Z,69.36
2022-08-28T03:29:41.271Z,69.36
2022-08-28T03:30:41.335Z,69.26
2022-08-28T03:31:41.249Z,69.26
2022-08-28T03:32:41.265Z,69.26
2022-08-28T03:33:42.667Z,69.36
2022-08-28T03:34:41.220Z,69.26
2022-08-28T03:35:41.212Z,69.26
2022-08-28T03:36:41.196Z,69.26
2022-08-28T03:37:41.212Z,69.26
2022-08-28T03:38:41.179Z,69.26
2022-08-28T03:39:41.166Z,69.26
2022-08-28T03:40:41.206Z,69.26
2022-08-28T03:41:41.152Z,69.36
2022-08-28T03:42:41.163Z,69.26
2022-08-28T03:43:41.151Z,69.26
2022-08-28T03:44:41.114Z,69.26
2022-08-28T03:45:41.200Z,69.26
2022-08-28T03:46:41.091Z,69.26
2022-08-28T03:47:41.082Z,69.26
2022-08-28T03:48:42.229Z,69.16
2022-08-28T03:49:41.059Z,69.16
2022-08-28T03:50:41.058Z,69.26
2022-08-28T03:51:41.040Z,69.26
2022-08-28T03:52:41.032Z,69.16
2022-08-28T03:53:41.061Z,69.26
2022-08-28T03:54:41.007Z,69.26
2022-08-28T03:55:40.993Z,69.26
2022-08-28T03:56:40.983Z,69.16
2022-08-28T03:57:40.971Z,69.26
2022-08-28T03:58:40.962Z,69.26
2022-08-28T03:59:40.978Z,69.26
2022-08-28T04:00:40.940Z,69.26
2022-08-28T04:01:40.996Z,69.16
2022-08-28T04:02:40.923Z,69.16
2022-08-28T04:03:41.022Z,69.26
2022-08-28T04:04:40.927Z,69.26
2022-08-28T04:05:40.887Z,69.26
2022-08-28T04:06:40.878Z,69.16
2022-08-28T04:07:40.866Z,69.16
2022-08-28T04:08:40.858Z,69.16
2022-08-28T04:09:40.871Z,69.26
2022-08-28T04:10:40.860Z,69.16
2022-08-28T04:11:40.824Z,69.26
2022-08-28T04:12:40.816Z,69.26
2022-08-28T04:13:40.801Z,69.36
2022-08-28T04:14:40.794Z,69.26
2022-08-28T04:15:40.809Z,69.16
2022-08-28T04:16:40.822Z,69.16
2022-08-28T04:17:40.757Z,69.16
2022-08-28T04:18:40.749Z,69.16
2022-08-28T04:19:40.736Z,69.16
2022-08-28T04:20:40.753Z,69.26
2022-08-28T04:21:40.715Z,69.16
2022-08-28T04:22:40.704Z,69.16
2022-08-28T04:23:40.702Z,69.16
2022-08-28T04:24:40.685Z,69.16
2022-08-28T04:25:40.698Z,69.16
2022-08-28T04:26:40.687Z,69.16
2022-08-28T04:27:40.650Z,69.16
2022-08-28T04:28:40.640Z,69.16
2022-08-28T04:29:40.628Z,69.16
2022-08-28T04:30:40.621Z,69.16
2022-08-28T04:31:40.694Z,69.16
2022-08-28T04:32:40.598Z,69.16
2022-08-28T04:33:40.587Z,69.16
2022-08-28T04:34:40.579Z,69.16
2022-08-28T04:35:40.566Z,69.16
2022-08-28T04:36:40.584Z,69.06
2022-08-28T04:37:40.569Z,69.06
2022-08-28T04:38:43.941Z,69.06
2022-08-28T04:39:40.520Z,69.06
2022-08-28T04:40:40.570Z,69.06
2022-08-28T04:41:40.510Z,69.16
2022-08-28T04:42:40.518Z,69.16
2022-08-28T04:43:40.480Z,69.16
2022-08-28T04:44:40.468Z,69.16
2022-08-28T04:45:40.513Z,69.06
2022-08-28T04:46:40.446Z,69.06
2022-08-28T04:47:40.484Z,69.06
2022-08-28T04:48:40.427Z,69.06
2022-08-28T04:49:40.418Z,69.16
2022-08-28T04:50:40.404Z,69.16
2022-08-28T04:51:42.252Z,69.06
2022-08-28T04:52:40.382Z,69.06
2022-08-28T04:53:40.400Z,69.06
2022-08-28T04:54:40.361Z,69.06
2022-08-28T04:55:54.375Z,69.06
2022-08-28T04:56:41.340Z,69.06
2022-08-28T04:57:40.333Z,69.06
2022-08-28T04:58:40.346Z,69.06
2022-08-28T04:59:40.311Z,69.06
2022-08-28T05:00:40.336Z,69.16
2022-08-28T05:01:40.288Z,69.16
2022-08-28T05:02:40.358Z,69.16
2022-08-28T05:03:40.293Z,69.16
2022-08-28T05:04:40.254Z,69.06
2022-08-28T05:05:40.247Z,69.06
2022-08-28T05:06:40.233Z,69.06
2022-08-28T05:07:40.225Z,69.06
2022-08-28T05:08:40.240Z,69.06
2022-08-28T05:09:40.233Z,68.96
2022-08-28T05:10:40.201Z,68.96
2022-08-28T05:11:40.183Z,69.06
2022-08-28T05:12:40.171Z,69.06
2022-08-28T05:13:40.166Z,69.06
2022-08-28T05:14:40.176Z,68.96
2022-08-28T05:15:40.137Z,69.06
2022-08-28T05:16:40.213Z,69.06
2022-08-28T05:17:40.121Z,69.06
2022-08-28T05:18:40.106Z,69.06
2022-08-28T05:19:40.125Z,68.86
2022-08-28T05:20:40.111Z,68.96
2022-08-28T05:21:40.079Z,69.06
2022-08-28T05:22:40.063Z,69.06
2022-08-28T05:23:40.054Z,69.06
2022-08-28T05:24:40.044Z,68.96
2022-08-28T05:25:40.059Z,68.96
2022-08-28T05:26:40.278Z,68.96
2022-08-28T05:27:40.011Z,68.96
2022-08-28T05:28:39.997Z,68.96
2022-08-28T05:29:39.988Z,68.96
2022-08-28T05:30:40.003Z,68.96
2022-08-28T05:31:40.076Z,68.96
2022-08-28T05:32:39.956Z,68.96
2022-08-28T05:33:39.944Z,68.96
2022-08-28T05:34:39.933Z,68.96
2022-08-28T05:35:39.925Z,69.06
2022-08-28T05:36:39.941Z,68.96
2022-08-28T05:37:39.902Z,68.96
2022-08-28T05:38:39.890Z,69.06
2022-08-28T05:39:39.880Z,68.96
2022-08-28T05:40:39.868Z,69.06
2022-08-28T05:41:39.907Z,69.06
2022-08-28T05:42:39.847Z,68.96
2022-08-28T05:43:39.839Z,69.06
2022-08-28T05:44:39.827Z,69.06
2022-08-28T05:45:39.839Z,68.96
2022-08-28T05:46:39.805Z,69.06
2022-08-28T05:47:39.821Z,68.96
2022-08-28T05:48:39.794Z,69.06
2022-08-28T05:49:39.773Z,69.06
2022-08-28T05:50:40.753Z,69.06
2022-08-28T05:51:40.752Z,69.06
2022-08-28T05:52:39.765Z,68.96
2022-08-28T05:53:39.729Z,69.06
2022-08-28T05:54:39.719Z,68.96
2022-08-28T05:55:39.709Z,68.96
2022-08-28T05:56:39.696Z,69.06
2022-08-28T05:57:39.717Z,69.06
2022-08-28T05:58:39.701Z,68.96
2022-08-28T05:59:39.664Z,69.06
2022-08-28T06:00:39.655Z,69.06
2022-08-28T06:01:39.700Z,69.06
2022-08-28T06:02:39.631Z,69.06
2022-08-28T06:03:39.738Z,69.06
2022-08-28T06:04:39.667Z,68.96
2022-08-28T06:05:39.605Z,68.96
2022-08-28T06:06:39.589Z,68.96
2022-08-28T06:07:39.578Z,68.96
2022-08-28T06:08:39.594Z,68.96
2022-08-28T06:09:40.583Z,69.06
2022-08-28T06:10:39.547Z,68.96
2022-08-28T06:11:44.608Z,68.96
2022-08-28T06:12:40.524Z,69.06
2022-08-28T06:13:39.517Z,69.06
2022-08-28T06:14:39.530Z,69.06
2022-08-28T06:15:39.496Z,68.96
2022-08-28T06:16:39.535Z,68.96
2022-08-28T06:17:39.476Z,68.96
2022-08-28T06:18:39.461Z,69.06
2022-08-28T06:19:41.692Z,68.96
2022-08-28T06:20:39.465Z,68.96
2022-08-28T06:21:39.429Z,69.06
2022-08-28T06:22:39.419Z,69.06
2022-08-28T06:23:39.411Z,69.06
2022-08-28T06:24:39.397Z,69.06
2022-08-28T06:25:39.415Z,68.96
2022-08-28T06:26:39.376Z,68.96
2022-08-28T06:27:39.371Z,68.96
2022-08-28T06:28:39.354Z,68.96
2022-08-28T06:29:39.347Z,68.86
2022-08-28T06:30:40.015Z,68.96
2022-08-28T06:31:39.415Z,68.86
2022-08-28T06:32:39.315Z,68.96
2022-08-28T06:33:39.306Z,68.96
2022-08-28T06:34:39.292Z,68.96
2022-08-28T06:35:39.283Z,68.96
2022-08-28T06:36:39.300Z,68.96
2022-08-28T06:37:39.263Z,68.86
2022-08-28T06:38:39.250Z,68.86
2022-08-28T06:39:39.240Z,68.86
2022-08-28T06:40:39.360Z,68.96
2022-08-28T06:41:39.267Z,68.86
2022-08-28T06:42:39.209Z,68.86
2022-08-28T06:43:39.200Z,68.96
2022-08-28T06:44:39.189Z,68.96
2022-08-28T06:45:39.214Z,68.96
2022-08-28T06:46:39.167Z,68.96
2022-08-28T06:47:39.188Z,68.86
2022-08-28T06:48:39.146Z,68.96
2022-08-28T06:49:39.135Z,68.96
2022-08-28T06:50:39.124Z,68.86
2022-08-28T06:51:39.137Z,68.96
2022-08-28T06:52:39.148Z,68.86
2022-08-28T06:53:39.097Z,68.86
2022-08-28T06:54:39.084Z,68.86
2022-08-28T06:55:39.074Z,68.86
2022-08-28T06:56:39.061Z,68.86
2022-08-28T06:57:39.053Z,68.76
2022-08-28T06:58:39.067Z,68.86
2022-08-28T06:59:39.038Z,68.76
2022-08-28T07:00:39.024Z,68.76
2022-08-28T07:01:39.071Z,68.76
2022-08-28T07:02:39.054Z,68.76
2022-08-28T07:03:42.732Z,68.76
2022-08-28T07:04:39.975Z,68.76
2022-08-28T07:05:38.969Z,68.76
2022-08-28T07:06:38.959Z,68.76
2022-08-28T07:07:38.947Z,68.76
2022-08-28T07:08:38.962Z,68.76
2022-08-28T07:09:38.948Z,68.76
2022-08-28T07:10:38.913Z,68.76
2022-08-28T07:11:38.907Z,68.86
2022-08-28T07:12:38.892Z,68.76
2022-08-28T07:13:38.887Z,68.86
2022-08-28T07:14:38.959Z,68.96
2022-08-28T07:15:38.913Z,68.76
2022-08-28T07:16:38.850Z,68.76
2022-08-28T07:17:38.844Z,68.66
2022-08-28T07:18:38.829Z,68.76
2022-08-28T07:19:38.920Z,68.76
2022-08-28T07:20:38.810Z,68.76
2022-08-28T07:21:39.359Z,68.66
2022-08-28T07:22:38.788Z,68.76
2022-08-28T07:23:38.777Z,68.76
2022-08-28T07:24:38.767Z,68.76
2022-08-28T07:25:38.787Z,68.76
2022-08-28T07:26:38.745Z,68.76
2022-08-28T07:27:38.738Z,68.76
2022-08-28T07:28:38.725Z,68.76
2022-08-28T07:29:38.718Z,68.76
2022-08-28T07:30:38.734Z,68.76
2022-08-28T07:31:38.795Z,68.76
2022-08-28T07:32:38.682Z,68.86
2022-08-28T07:33:38.673Z,68.76
2022-08-28T07:34:38.661Z,68.86
2022-08-28T07:35:38.681Z,68.76
2022-08-28T07:36:38.665Z,68.76
2022-08-28T07:37:40.603Z,68.76
2022-08-28T07:38:38.622Z,68.76
2022-08-28T07:39:38.611Z,68.76
2022-08-28T07:40:38.680Z,68.76
2022-08-28T07:41:38.615Z,68.76
2022-08-28T07:42:38.578Z,68.76
2022-08-28T07:43:38.568Z,68.76
2022-08-28T07:44:38.558Z,68.76
2022-08-28T07:45:38.586Z,68.86
2022-08-28T07:46:38.564Z,68.76
2022-08-28T07:47:38.529Z,68.76
2022-08-28T07:48:38.516Z,68.86
2022-08-28T07:49:38.508Z,68.76
2022-08-28T07:50:38.493Z,68.76
2022-08-28T07:51:38.555Z,68.76
2022-08-28T07:52:38.473Z,68.76
2022-08-28T07:53:38.464Z,68.86
2022-08-28T07:54:38.452Z,68.86
2022-08-28T07:55:38.448Z,68.76
2022-08-28T07:56:38.429Z,68.86
2022-08-28T07:57:38.469Z,68.86
2022-08-28T07:58:38.413Z,68.86
2022-08-28T07:59:38.399Z,68.76
2022-08-28T08:00:38.392Z,68.76
2022-08-28T08:01:38.407Z,68.96
2022-08-28T08:02:38.370Z,68.86
2022-08-28T08:03:38.480Z,68.76
2022-08-28T08:04:38.348Z,68.86
2022-08-28T08:05:38.337Z,68.86
2022-08-28T08:06:38.331Z,68.76
2022-08-28T08:07:38.314Z,68.76
2022-08-28T08:08:38.336Z,68.76
2022-08-28T08:09:38.297Z,68.86
2022-08-28T08:10:38.285Z,68.96
2022-08-28T08:11:38.274Z,68.96
2022-08-28T08:12:38.265Z,68.96
2022-08-28T08:13:38.283Z,68.86
2022-08-28T08:14:38.272Z,68.96
2022-08-28T08:15:38.269Z,68.96
2022-08-28T08:16:38.223Z,68.96
2022-08-28T08:17:38.212Z,68.86
2022-08-28T08:18:38.204Z,68.86
2022-08-28T08:19:38.218Z,68.86
2022-08-28T08:20:38.182Z,68.96
2022-08-28T08:21:38.173Z,68.96
2022-08-28T08:22:38.160Z,68.96
2022-08-28T08:23:38.147Z,68.86
2022-08-28T08:24:38.168Z,68.86
2022-08-28T08:25:38.128Z,68.96
2022-08-28T08:26:38.116Z,68.96
2022-08-28T08:27:42.840Z,69.06
2022-08-28T08:28:39.096Z,68.96
2022-08-28T08:29:38.087Z,68.86
2022-08-28T08:30:38.120Z,68.86
2022-08-28T08:31:38.086Z,68.86
2022-08-28T08:32:38.057Z,68.96
2022-08-28T08:33:38.041Z,68.86
2022-08-28T08:34:38.049Z,68.86
2022-08-28T08:35:38.052Z,68.86
2022-08-28T08:36:38.009Z,68.86
2022-08-28T08:37:37.999Z,68.76
2022-08-28T08:38:37.988Z,68.76
2022-08-28T08:39:37.979Z,68.76
2022-08-28T08:40:38.139Z,68.76
2022-08-28T08:41:37.959Z,68.76
2022-08-28T08:42:37.946Z,68.86
2022-08-28T08:43:37.936Z,68.96
2022-08-28T08:44:37.925Z,69.06
2022-08-28T08:45:37.914Z,69.06
2022-08-28T08:46:37.991Z,69.06
2022-08-28T08:47:37.892Z,69.06
2022-08-28T08:48:37.884Z,69.06
2022-08-28T08:49:37.871Z,69.06
2022-08-28T08:50:37.863Z,69.06
2022-08-28T08:51:37.899Z,68.96
2022-08-28T08:52:37.842Z,68.96
2022-08-28T08:53:37.831Z,68.96
2022-08-28T08:54:37.819Z,68.96
2022-08-28T08:55:37.810Z,68.96
2022-08-28T08:56:37.798Z,68.86
2022-08-28T08:57:37.818Z,68.86
2022-08-28T08:58:37.781Z,68.86
2022-08-28T08:59:37.765Z,68.86
2022-08-28T09:00:37.754Z,68.86
2022-08-28T09:01:37.791Z,68.86
2022-08-28T09:02:37.765Z,68.86
2022-08-28T09:03:37.787Z,68.86
2022-08-28T09:04:38.710Z,68.96
2022-08-28T09:05:37.701Z,68.96
2022-08-28T09:06:37.689Z,68.96
2022-08-28T09:07:37.710Z,68.76
2022-08-28T09:08:37.694Z,68.86
2022-08-28T09:09:37.662Z,68.96
2022-08-28T09:10:37.648Z,68.86
2022-08-28T09:11:37.639Z,68.86
2022-08-28T09:12:37.627Z,68.86
2022-08-28T09:13:37.644Z,68.76
2022-08-28T09:14:37.631Z,68.66
2022-08-28T09:15:37.629Z,68.76
2022-08-28T09:16:37.584Z,68.66
2022-08-28T09:17:37.577Z,68.76
2022-08-28T09:18:38.466Z,68.76
2022-08-28T09:19:37.606Z,68.76
2022-08-28T09:20:37.542Z,68.76
2022-08-28T09:21:37.535Z,68.66
2022-08-28T09:22:37.521Z,68.76
2022-08-28T09:23:37.512Z,68.66
2022-08-28T09:24:37.529Z,68.66
2022-08-28T09:25:37.518Z,68.66
2022-08-28T09:26:37.481Z,68.66
2022-08-28T09:27:39.587Z,68.66
2022-08-28T09:28:37.459Z,68.66
2022-08-28T09:29:37.461Z,68.56
2022-08-28T09:30:37.465Z,68.56
2022-08-28T09:31:37.483Z,68.56
2022-08-28T09:32:37.417Z,68.56
2022-08-28T09:33:37.411Z,68.66
2022-08-28T09:34:39.091Z,68.66
2022-08-28T09:35:37.406Z,68.66
2022-08-28T09:36:37.424Z,68.66
2022-08-28T09:37:37.367Z,68.66
2022-08-28T09:38:37.355Z,68.66
2022-08-28T09:39:37.347Z,68.76
2022-08-28T09:40:37.384Z,68.66
2022-08-28T09:41:37.372Z,68.66
2022-08-28T09:42:37.311Z,68.66
2022-08-28T09:43:37.301Z,68.56
2022-08-28T09:44:37.289Z,68.56
2022-08-28T09:45:37.283Z,68.66
2022-08-28T09:46:37.310Z,68.66
2022-08-28T09:47:46.360Z,68.76
2022-08-28T09:48:38.251Z,68.76
2022-08-28T09:49:37.237Z,68.76
2022-08-28T09:50:37.225Z,68.76
2022-08-28T09:51:37.216Z,68.66
2022-08-28T09:52:37.233Z,68.66
2022-08-28T09:53:37.196Z,68.76
2022-08-28T09:54:37.185Z,68.66
2022-08-28T09:55:37.173Z,68.66
2022-08-28T09:56:37.163Z,68.66
2022-08-28T09:57:37.185Z,68.66
2022-08-28T09:58:37.141Z,68.66
2022-08-28T09:59:37.131Z,68.66
2022-08-28T10:00:37.120Z,68.66
2022-08-28T10:01:37.167Z,68.66
2022-08-28T10:02:37.128Z,68.76
2022-08-28T10:03:37.115Z,68.86
2022-08-28T10:04:37.141Z,68.86
2022-08-28T10:05:37.070Z,68.76
2022-08-28T10:06:37.057Z,68.76
2022-08-28T10:07:37.046Z,68.86
2022-08-28T10:08:37.064Z,68.96
2022-08-28T10:09:37.029Z,68.66
2022-08-28T10:10:37.015Z,68.66
2022-08-28T10:11:37.007Z,68.76
2022-08-28T10:12:36.994Z,68.76
2022-08-28T10:13:37.012Z,68.86
2022-08-28T10:14:37.000Z,68.86
2022-08-28T10:15:41.171Z,68.76
2022-08-28T10:16:37.953Z,68.76
2022-08-28T10:17:36.945Z,68.76
2022-08-28T10:18:36.931Z,68.96
2022-08-28T10:19:36.950Z,68.96
2022-08-28T10:20:36.936Z,69.06
2022-08-28T10:21:36.902Z,68.96
2022-08-28T10:22:36.889Z,68.96
2022-08-28T10:23:36.882Z,68.96
2022-08-28T10:24:36.868Z,68.96
2022-08-28T10:25:36.885Z,68.96
2022-08-28T10:26:36.847Z,68.86
2022-08-28T10:27:36.838Z,68.96
2022-08-28T10:28:36.825Z,68.96
2022-08-28T10:29:36.818Z,68.76
2022-08-28T10:30:36.900Z,68.86
2022-08-28T10:31:36.798Z,68.96
2022-08-28T10:32:36.784Z,68.96
2022-08-28T10:33:36.774Z,68.96
2022-08-28T10:34:36.763Z,68.96
2022-08-28T10:35:36.786Z,68.96
2022-08-28T10:36:36.743Z,68.96
2022-08-28T10:37:36.732Z,68.96
2022-08-28T10:38:36.723Z,69.06
2022-08-28T10:39:36.711Z,69.06
2022-08-28T10:40:36.850Z,69.06
2022-08-28T10:41:36.718Z,69.06
2022-08-28T10:42:36.681Z,69.06
2022-08-28T10:43:36.671Z,69.06
2022-08-28T10:44:36.661Z,69.06
2022-08-28T10:45:36.650Z,68.96
2022-08-28T10:46:36.708Z,68.96
2022-08-28T10:47:36.625Z,69.06
2022-08-28T10:48:36.614Z,68.96
2022-08-28T10:49:36.605Z,68.86
2022-08-28T10:50:36.595Z,68.96
2022-08-28T10:51:39.472Z,68.96
2022-08-28T10:52:37.571Z,68.86
2022-08-28T10:53:36.564Z,68.96
2022-08-28T10:54:36.552Z,68.96
2022-08-28T10:55:36.700Z,69.06
2022-08-28T10:56:36.531Z,68.96
2022-08-28T10:57:39.691Z,68.96
2022-08-28T10:58:36.513Z,68.96
2022-08-28T10:59:42.370Z,69.06
2022-08-28T11:00:37.487Z,68.96
2022-08-28T11:01:36.569Z,68.96
2022-08-28T11:02:36.529Z,68.96
2022-08-28T11:03:36.486Z,68.96
2022-08-28T11:04:36.444Z,68.96
2022-08-28T11:05:36.438Z,68.86
2022-08-28T11:06:36.426Z,68.76
2022-08-28T11:07:36.419Z,68.76
2022-08-28T11:08:36.435Z,68.76
2022-08-28T11:09:36.392Z,68.76
2022-08-28T11:10:36.384Z,68.76
2022-08-28T11:11:36.374Z,68.86
2022-08-28T11:12:36.362Z,68.86
2022-08-28T11:13:36.406Z,68.96
2022-08-28T11:14:47.901Z,68.96
2022-08-28T11:15:37.730Z,68.96
2022-08-28T11:16:36.389Z,68.96
2022-08-28T11:17:36.363Z,68.86
2022-08-28T11:18:36.336Z,68.86
2022-08-28T11:19:38.682Z,68.86
2022-08-28T11:20:36.306Z,68.96
2022-08-28T11:21:36.281Z,69.06
2022-08-28T11:22:36.256Z,68.96
2022-08-28T11:23:36.249Z,68.66
2022-08-28T11:24:36.236Z,68.26
2022-08-28T11:25:36.272Z,68.26
2022-08-28T11:26:36.239Z,68.46
2022-08-28T11:27:36.308Z,68.56
2022-08-28T11:28:36.196Z,68.46
2022-08-28T11:29:36.184Z,68.76
2022-08-28T11:30:36.231Z,68.96
2022-08-28T11:31:36.284Z,69.16
2022-08-28T11:32:36.180Z,69.26
2022-08-28T11:33:36.140Z,69.36
2022-08-28T11:34:36.128Z,69.46
2022-08-28T11:35:36.119Z,69.36
2022-08-28T11:36:36.105Z,69.46
2022-08-28T11:37:36.166Z,69.36
2022-08-28T11:38:36.117Z,69.26
2022-08-28T11:39:36.078Z,69.16
2022-08-28T11:40:36.131Z,69.06
2022-08-28T11:41:36.057Z,68.96
2022-08-28T11:42:36.045Z,69.06
2022-08-28T11:43:36.061Z,69.06
2022-08-28T11:44:36.022Z,69.06
2022-08-28T11:45:36.011Z,69.06
2022-08-28T11:46:36.008Z,69.16
2022-08-28T11:47:36.039Z,69.16
2022-08-28T11:48:36.012Z,69.06
2022-08-28T11:49:35.974Z,69.16
2022-08-28T11:50:35.956Z,69.16
2022-08-28T11:51:35.948Z,69.26
2022-08-28T11:52:35.942Z,69.36
2022-08-28T11:53:35.980Z,69.46
2022-08-28T11:54:35.912Z,69.36
2022-08-28T11:55:35.908Z,69.36
2022-08-28T11:56:35.898Z,69.36
2022-08-28T11:57:35.887Z,69.26
2022-08-28T11:58:35.873Z,69.26
2022-08-28T11:59:35.906Z,69.36
2022-08-28T12:00:35.851Z,69.36
2022-08-28T12:01:35.844Z,69.36
2022-08-28T12:02:35.897Z,69.36
2022-08-28T12:03:35.819Z,69.36
2022-08-28T12:04:35.934Z,69.36
2022-08-28T12:05:35.799Z,69.26
2022-08-28T12:06:35.786Z,69.26
2022-08-28T12:07:35.781Z,69.26
2022-08-28T12:08:35.766Z,69.16
2022-08-28T12:09:35.775Z,69.16
2022-08-28T12:10:35.773Z,69.26
2022-08-28T12:11:35.737Z,69.16
2022-08-28T12:12:35.863Z,69.26
2022-08-28T12:13:35.712Z,69.16
2022-08-28T12:14:35.701Z,69.26
2022-08-28T12:15:35.757Z,69.26
2022-08-28T12:16:35.679Z,69.16
2022-08-28T12:17:35.668Z,69.16
2022-08-28T12:18:35.657Z,69.06
2022-08-28T12:19:35.647Z,69.06
2022-08-28T12:20:36.669Z,69.06
2022-08-28T12:21:35.629Z,69.16
2022-08-28T12:22:35.722Z,69.16
2022-08-28T12:23:35.607Z,69.16
2022-08-28T12:24:35.593Z,69.06
2022-08-28T12:25:35.614Z,69.16
2022-08-28T12:26:35.572Z,69.16
2022-08-28T12:27:35.562Z,69.16
2022-08-28T12:28:35.574Z,69.16
2022-08-28T12:29:35.545Z,69.16
2022-08-28T12:30:35.568Z,69.16
2022-08-28T12:31:35.522Z,68.76
2022-08-28T12:32:35.636Z,68.96
2022-08-28T12:33:35.546Z,68.96
2022-08-28T12:34:35.488Z,68.96
2022-08-28T12:35:35.482Z,68.96
2022-08-28T12:36:35.467Z,68.96
2022-08-28T12:37:36.901Z,68.96
2022-08-28T12:38:36.478Z,69.06
2022-08-28T12:39:35.467Z,69.06
2022-08-28T12:40:35.529Z,68.96
2022-08-28T12:41:35.423Z,68.96
2022-08-28T12:42:35.406Z,69.06
2022-08-28T12:43:35.394Z,69.06
2022-08-28T12:44:35.415Z,69.06
2022-08-28T12:45:35.514Z,69.16
2022-08-28T12:46:35.443Z,69.16
2022-08-28T12:47:35.353Z,68.96
2022-08-28T12:48:35.340Z,68.96
2022-08-28T12:49:35.332Z,68.96
2022-08-28T12:50:35.349Z,69.16
2022-08-28T12:51:35.339Z,69.06
2022-08-28T12:52:35.299Z,69.26